createdAt,value
2023-04-20T00:00:21.929Z,101356.16
2023-04-20T00:00:44.139Z,101377.91
2023-04-20T00:01:05.854Z,101387.53
2023-04-20T00:01:27.487Z,101383.06
2023-04-20T00:01:50.178Z,101383.03
2023-04-20T00:02:13.718Z,101389.28
2023-04-20T00:02:35.508Z,101380.44
2023-04-20T00:02:58.314Z,101381.28
2023-04-20T00:03:21.455Z,101384.06
2023-04-20T00:03:43.604Z,101387.44
2023-04-20T00:04:05.564Z,101389.28
2023-04-20T00:04:27.158Z,101384.84
2023-04-20T00:04:49.807Z,101380.41
2023-04-20T00:05:12.491Z,101378.66
2023-04-20T00:05:34.356Z,101376.06
2023-04-20T00:05:56.018Z,101380.50
2023-04-20T00:06:18.630Z,101377.78
2023-04-20T00:06:42.246Z,101383.19
2023-04-20T00:07:04.516Z,101379.56
2023-04-20T00:07:27.289Z,101384.84
2023-04-20T00:07:50.031Z,101382.16
2023-04-20T00:08:11.656Z,101374.31
2023-04-20T00:08:33.470Z,101380.59
2023-04-20T00:08:55.199Z,101373.56
2023-04-20T00:09:16.978Z,101371.78
2023-04-20T00:09:38.815Z,101375.41
2023-04-20T00:10:01.418Z,101372.72
2023-04-20T00:10:23.094Z,101356.06
2023-04-20T00:10:45.146Z,101385.16
2023-04-20T00:11:06.682Z,101378.84
2023-04-20T00:11:30.589Z,101372.72
2023-04-20T00:11:52.237Z,101379.09
2023-04-20T00:12:13.829Z,101368.56
2023-04-20T00:12:35.851Z,101369.72
2023-04-20T00:12:58.475Z,101380.28
2023-04-20T00:13:20.165Z,101376.69
2023-04-20T00:13:41.770Z,101376.75
2023-04-20T00:14:03.588Z,101374.94
2023-04-20T00:14:26.256Z,101368.78
2023-04-20T00:14:47.885Z,101379.44
2023-04-20T00:15:10.356Z,101370.59
2023-04-20T00:15:33.615Z,101373.19
2023-04-20T00:15:56.172Z,101364.31
2023-04-20T00:16:18.597Z,101353.06
2023-04-20T00:16:40.556Z,101369.59
2023-04-20T00:17:02.175Z,101374.00
2023-04-20T00:17:24.862Z,101373.06
2023-04-20T00:17:48.656Z,101371.25
2023-04-20T00:18:10.577Z,101361.59
2023-04-20T00:18:33.235Z,101367.88
2023-04-20T00:18:55.146Z,101363.53
2023-04-20T00:19:17.400Z,101373.19
2023-04-20T00:19:39.139Z,101368.84
2023-04-20T00:20:01.098Z,101368.78
2023-04-20T00:20:24.489Z,101365.28
2023-04-20T00:20:46.290Z,101362.53
2023-04-20T00:21:07.870Z,101365.28
2023-04-20T00:21:29.537Z,101363.53
2023-04-20T00:21:52.939Z,101368.84
2023-04-20T00:22:14.538Z,101366.19
2023-04-20T00:22:36.116Z,101360.75
2023-04-20T00:22:57.792Z,101363.53
2023-04-20T00:23:20.429Z,101358.22
2023-04-20T00:23:42.186Z,101356.53
2023-04-20T00:24:04.041Z,101360.88
2023-04-20T00:24:25.662Z,101358.25
2023-04-20T00:24:48.246Z,101359.13
2023-04-20T00:25:10.064Z,101356.44
2023-04-20T00:25:32.289Z,101343.38
2023-04-20T00:25:54.506Z,101359.09
2023-04-20T00:26:16.945Z,101351.97
2023-04-20T00:26:44.429Z,101353.72
2023-04-20T00:27:06.141Z,101343.06
2023-04-20T00:27:28.060Z,101352.75
2023-04-20T00:27:49.645Z,101347.41
2023-04-20T00:28:11.310Z,101351.88
2023-04-20T00:28:34.031Z,101343.88
2023-04-20T00:28:55.760Z,101344.78
2023-04-20T00:29:17.704Z,101342.09
2023-04-20T00:29:39.508Z,101342.09
2023-04-20T00:30:01.270Z,101343.88
2023-04-20T00:30:24.241Z,101336.81
2023-04-20T00:30:46.004Z,101339.47
2023-04-20T00:31:07.708Z,101339.44
2023-04-20T00:31:31.554Z,101339.38
2023-04-20T00:31:54.212Z,101342.94
2023-04-20T00:32:15.906Z,101338.56
2023-04-20T00:32:37.591Z,101328.75
2023-04-20T00:32:59.306Z,101332.31
2023-04-20T00:33:21.940Z,101331.41
2023-04-20T00:33:43.550Z,101332.28
2023-04-20T00:34:05.186Z,101334.81
2023-04-20T00:34:29.119Z,101331.34
2023-04-20T00:34:51.737Z,101333.94
2023-04-20T00:35:13.404Z,101326.88
2023-04-20T00:35:34.971Z,101330.41
2023-04-20T00:36:32.885Z,101330.53
2023-04-20T00:36:54.557Z,101325.16
2023-04-20T00:37:16.171Z,101335.75
2023-04-20T00:37:37.814Z,101319.03
2023-04-20T00:37:59.411Z,101326.94
2023-04-20T00:38:21.944Z,101332.19
2023-04-20T00:38:43.517Z,101329.50
2023-04-20T00:39:05.699Z,101325.03
2023-04-20T00:39:27.387Z,101325.94
2023-04-20T00:39:50.433Z,101325.06
2023-04-20T00:40:12.400Z,101322.38
2023-04-20T00:40:35.266Z,101326.78
2023-04-20T00:41:00.121Z,101319.66
2023-04-20T00:41:21.993Z,101325.03
2023-04-20T00:41:45.004Z,101317.03
2023-04-20T00:42:07.657Z,101323.22
2023-04-20T00:42:29.478Z,101311.59
2023-04-20T00:42:52.072Z,101323.94
2023-04-20T00:43:14.371Z,101319.59
2023-04-20T00:43:36.029Z,101319.56
2023-04-20T00:43:57.630Z,101315.94
2023-04-20T00:44:20.356Z,101319.53
2023-04-20T00:44:42.051Z,101319.53
2023-04-20T00:45:04.244Z,101315.06
2023-04-20T00:45:26.102Z,101316.91
2023-04-20T00:45:48.952Z,101299.56
2023-04-20T00:46:10.612Z,101312.63
2023-04-20T00:46:32.278Z,101308.94
2023-04-20T00:46:56.357Z,101309.78
2023-04-20T00:47:19.069Z,101316.84
2023-04-20T00:47:40.870Z,101310.66
2023-04-20T00:48:02.603Z,101304.44
2023-04-20T00:48:24.258Z,101312.41
2023-04-20T00:48:46.476Z,101315.00
2023-04-20T00:49:09.440Z,101307.00
2023-04-20T00:49:31.819Z,101311.53
2023-04-20T00:49:54.900Z,101305.34
2023-04-20T00:50:17.345Z,101304.56
2023-04-20T00:50:41.614Z,101314.22
2023-04-20T00:51:03.435Z,101312.44
2023-04-20T00:51:25.125Z,101311.59
2023-04-20T00:51:46.734Z,101308.13
2023-04-20T00:52:10.005Z,101312.56
2023-04-20T00:52:32.529Z,101310.69
2023-04-20T00:52:54.552Z,101304.47
2023-04-20T00:53:16.830Z,101305.47
2023-04-20T00:53:39.628Z,101307.22
2023-04-20T00:54:01.693Z,101304.47
2023-04-20T00:54:23.700Z,101307.16
2023-04-20T00:54:45.579Z,101303.72
2023-04-20T00:55:08.671Z,101300.94
2023-04-20T00:55:30.831Z,101300.03
2023-04-20T00:55:52.450Z,101311.69
2023-04-20T00:56:15.043Z,101267.94
2023-04-20T00:56:39.418Z,101304.75
2023-04-20T00:57:04.733Z,101303.88
2023-04-20T00:57:27.621Z,101301.97
2023-04-20T00:57:49.500Z,101303.81
2023-04-20T00:58:12.530Z,101297.78
2023-04-20T00:58:34.229Z,101301.94
2023-04-20T00:58:56.253Z,101290.50
2023-04-20T00:59:18.046Z,101298.38
2023-04-20T00:59:41.883Z,101291.31
2023-04-20T01:00:06.546Z,101294.84
2023-04-20T01:00:28.541Z,101290.44
2023-04-20T01:00:50.138Z,101290.53
2023-04-20T01:01:17.538Z,101292.47
2023-04-20T01:01:41.372Z,101303.13
2023-04-20T01:02:03.272Z,101294.25
2023-04-20T01:02:25.084Z,101294.25
2023-04-20T01:02:47.848Z,101297.81
2023-04-20T01:03:09.805Z,101290.66
2023-04-20T01:03:32.085Z,101295.19
2023-04-20T01:03:56.016Z,101292.50
2023-04-20T01:04:19.713Z,101289.84
2023-04-20T01:04:41.484Z,101288.13
2023-04-20T01:05:03.966Z,101298.66
2023-04-20T01:05:25.828Z,101290.66
2023-04-20T01:05:48.418Z,101287.03
2023-04-20T01:06:10.877Z,101282.50
2023-04-20T01:06:32.602Z,101291.41
2023-04-20T01:06:54.225Z,101278.09
2023-04-20T01:07:16.456Z,101286.16
2023-04-20T01:07:39.087Z,101280.84
2023-04-20T01:08:00.826Z,101286.28
2023-04-20T01:08:26.099Z,101283.59
2023-04-20T01:08:51.076Z,101282.06
2023-04-20T01:09:13.730Z,101288.25
2023-04-20T01:09:37.669Z,101287.41
2023-04-20T01:10:00.385Z,101286.53
2023-04-20T01:10:22.962Z,101277.66
2023-04-20T01:10:46.239Z,101280.34
2023-04-20T01:11:07.846Z,101281.25
2023-04-20T01:11:29.964Z,101286.53
2023-04-20T01:11:51.619Z,101279.41
2023-04-20T01:12:15.544Z,101278.53
2023-04-20T01:12:39.034Z,101288.06
2023-04-20T01:13:00.676Z,101279.19
2023-04-20T01:13:22.396Z,101280.06
2023-04-20T01:13:44.037Z,101284.53
2023-04-20T01:14:06.747Z,101284.44
2023-04-20T01:14:28.361Z,101278.25
2023-04-20T01:14:51.654Z,101283.56
2023-04-20T01:15:13.321Z,101273.78
2023-04-20T01:15:35.283Z,101283.47
2023-04-20T01:16:00.057Z,101278.13
2023-04-20T01:16:23.080Z,101282.50
2023-04-20T01:16:44.845Z,101279.03
2023-04-20T01:17:07.819Z,101286.09
2023-04-20T01:17:30.608Z,101280.75
2023-04-20T01:17:53.542Z,101281.72
2023-04-20T01:18:17.414Z,101282.53
2023-04-20T01:18:43.974Z,101281.72
2023-04-20T01:19:06.532Z,101284.44
2023-04-20T01:19:28.223Z,101280.94
2023-04-20T01:19:49.977Z,101283.56
2023-04-20T01:20:12.386Z,101277.25
2023-04-20T01:20:35.089Z,101282.59
2023-04-20T01:20:56.765Z,101276.34
2023-04-20T01:21:21.403Z,101270.25
2023-04-20T01:21:43.068Z,101279.00
2023-04-20T01:22:06.027Z,101278.88
2023-04-20T01:22:29.049Z,101276.19
2023-04-20T01:22:53.644Z,101272.59
2023-04-20T01:23:16.724Z,101285.03
2023-04-20T01:23:39.556Z,101275.22
2023-04-20T01:24:01.504Z,101279.56
2023-04-20T01:24:23.213Z,101269.78
2023-04-20T01:24:47.186Z,101270.66
2023-04-20T01:25:09.267Z,101277.78
2023-04-20T01:25:31.103Z,101275.00
2023-04-20T01:25:52.732Z,101275.13
2023-04-20T01:26:18.320Z,101272.50
2023-04-20T01:26:39.970Z,101250.72
2023-04-20T01:27:02.483Z,101276.94
2023-04-20T01:27:24.210Z,101276.16
2023-04-20T01:27:46.850Z,101276.22
2023-04-20T01:28:09.375Z,101283.47
2023-04-20T01:28:31.222Z,101272.72
2023-04-20T01:28:53.052Z,101264.06
2023-04-20T01:29:16.083Z,101270.09
2023-04-20T01:29:38.049Z,101267.50
2023-04-20T01:29:59.713Z,101267.38
2023-04-20T01:30:21.646Z,101272.78
2023-04-20T01:30:44.523Z,101266.50
2023-04-20T01:31:07.836Z,101275.31
2023-04-20T01:31:31.869Z,101275.31
2023-04-20T01:31:53.629Z,101273.63
2023-04-20T01:32:16.338Z,101275.44
2023-04-20T01:32:38.874Z,101269.97
2023-04-20T01:33:01.092Z,101272.59
2023-04-20T01:33:22.758Z,101271.72
2023-04-20T01:33:45.941Z,101268.22
2023-04-20T01:34:08.541Z,101270.06
2023-04-20T01:34:30.365Z,101273.63
2023-04-20T01:34:52.006Z,101274.50
2023-04-20T01:35:14.100Z,101266.59
2023-04-20T01:35:36.697Z,101263.06
2023-04-20T01:35:58.383Z,101274.44
2023-04-20T01:36:19.922Z,101271.84
2023-04-20T01:36:41.604Z,101269.06
2023-04-20T01:37:07.940Z,101266.41
2023-04-20T01:37:31.066Z,101267.38
2023-04-20T01:37:52.695Z,101259.31
2023-04-20T01:38:18.186Z,101268.22
2023-04-20T01:38:41.206Z,101242.88
2023-04-20T01:39:02.918Z,101263.94
2023-04-20T01:39:25.046Z,101263.00
2023-04-20T01:39:48.885Z,101262.13
2023-04-20T01:40:13.110Z,101261.25
2023-04-20T01:40:35.159Z,101260.31
2023-04-20T01:40:56.841Z,101261.38
2023-04-20T01:41:18.423Z,101254.09
2023-04-20T01:41:41.128Z,101253.19
2023-04-20T01:42:02.870Z,101254.19
2023-04-20T01:42:24.619Z,101259.44
2023-04-20T01:42:46.297Z,101252.34
2023-04-20T01:43:08.816Z,101250.53
2023-04-20T01:43:31.303Z,101260.22
2023-04-20T01:43:52.959Z,101257.56
2023-04-20T01:44:14.546Z,101255.03
2023-04-20T01:44:37.109Z,101252.25
2023-04-20T01:44:58.802Z,101257.53
2023-04-20T01:45:20.728Z,101252.16
2023-04-20T01:45:42.382Z,101255.63
2023-04-20T01:46:04.948Z,101259.16
2023-04-20T01:46:27.577Z,101263.59
2023-04-20T01:46:49.217Z,101259.97
2023-04-20T01:47:10.862Z,101262.66
2023-04-20T01:47:35.704Z,101260.03
2023-04-20T01:47:58.374Z,101253.91
2023-04-20T01:48:21.114Z,101251.25
2023-04-20T01:48:42.747Z,101259.25
2023-04-20T01:49:04.344Z,101266.41
2023-04-20T01:49:26.679Z,101264.56
2023-04-20T01:49:49.311Z,101256.72
2023-04-20T01:50:11.220Z,101268.16
2023-04-20T01:50:33.348Z,101246.19
2023-04-20T01:50:55.254Z,101261.94
2023-04-20T01:51:17.875Z,101260.13
2023-04-20T01:51:39.517Z,101254.00
2023-04-20T01:52:01.165Z,101254.00
2023-04-20T01:52:22.728Z,101257.50
2023-04-20T01:52:45.747Z,101256.66
2023-04-20T01:53:08.350Z,101261.09
2023-04-20T01:53:29.985Z,101254.91
2023-04-20T01:53:51.605Z,101255.78
2023-04-20T01:54:13.346Z,101254.81
2023-04-20T01:54:37.475Z,101260.16
2023-04-20T01:54:59.131Z,101253.94
2023-04-20T01:55:21.019Z,101253.06
2023-04-20T01:55:42.602Z,101256.81
2023-04-20T01:56:04.877Z,101247.91
2023-04-20T01:56:27.731Z,101252.34
2023-04-20T01:56:49.376Z,101257.72
2023-04-20T01:57:11.018Z,101255.06
2023-04-20T01:57:32.929Z,101244.41
2023-04-20T01:57:55.552Z,101254.19
2023-04-20T01:58:18.321Z,101257.72
2023-04-20T01:58:39.958Z,101253.34
2023-04-20T01:59:01.590Z,101255.13
2023-04-20T01:59:24.298Z,101258.66
2023-04-20T01:59:45.999Z,101251.63
2023-04-20T02:00:09.065Z,101253.34
2023-04-20T02:00:35.736Z,101251.50
2023-04-20T02:00:58.467Z,101253.28
2023-04-20T02:01:22.027Z,101251.63
2023-04-20T02:01:43.770Z,101251.50
2023-04-20T02:02:05.478Z,101233.88
2023-04-20T02:02:28.876Z,101235.81
2023-04-20T02:02:50.853Z,101254.97
2023-04-20T02:03:12.899Z,101254.09
2023-04-20T02:03:34.927Z,101255.84
2023-04-20T02:03:57.696Z,101250.59
2023-04-20T02:04:20.300Z,101256.75
2023-04-20T02:04:41.901Z,101251.59
2023-04-20T02:05:04.632Z,101249.69
2023-04-20T02:05:27.310Z,101248.00
2023-04-20T02:05:49.961Z,101250.53
2023-04-20T02:06:12.954Z,101250.56
2023-04-20T02:06:34.541Z,101236.56
2023-04-20T02:06:56.520Z,101250.53
2023-04-20T02:07:19.152Z,101241.81
2023-04-20T02:07:41.143Z,101248.81
2023-04-20T02:08:04.422Z,101239.06
2023-04-20T02:08:27.709Z,101234.72
2023-04-20T02:08:49.429Z,101241.66
2023-04-20T02:09:11.297Z,101242.47
2023-04-20T02:09:33.011Z,101243.34
2023-04-20T02:09:54.692Z,101234.53
2023-04-20T02:10:16.283Z,101245.09
2023-04-20T02:10:41.088Z,101244.22
2023-04-20T02:11:04.191Z,101231.75
2023-04-20T02:11:26.232Z,101237.97
2023-04-20T02:11:47.920Z,101238.63
2023-04-20T02:12:09.568Z,101236.88
2023-04-20T02:12:35.337Z,101236.13
2023-04-20T02:12:57.006Z,101240.50
2023-04-20T02:13:19.205Z,101237.81
2023-04-20T02:13:40.866Z,101239.56
2023-04-20T02:14:03.647Z,101232.47
2023-04-20T02:14:25.654Z,101237.91
2023-04-20T02:14:47.426Z,101228.97
2023-04-20T02:15:10.389Z,101232.50
2023-04-20T02:15:33.067Z,101231.72
2023-04-20T02:15:55.440Z,101239.75
2023-04-20T02:16:19.008Z,101230.88
2023-04-20T02:16:41.515Z,101231.78
2023-04-20T02:17:04.362Z,101229.13
2023-04-20T02:17:26.209Z,101230.91
2023-04-20T02:17:52.151Z,101225.59
2023-04-20T02:18:15.496Z,101220.47
2023-04-20T02:18:37.358Z,101227.44
2023-04-20T02:18:58.992Z,101223.00
2023-04-20T02:19:21.190Z,101225.53
2023-04-20T02:19:43.814Z,101223.75
2023-04-20T02:20:06.783Z,101225.47
2023-04-20T02:20:28.570Z,101219.31
2023-04-20T02:20:50.568Z,101222.84
2023-04-20T02:21:13.302Z,101214.94
2023-04-20T02:21:34.952Z,101214.94
2023-04-20T02:21:56.579Z,101213.22
2023-04-20T02:22:18.238Z,101217.66
2023-04-20T02:22:40.920Z,101213.25
2023-04-20T02:23:04.155Z,101203.53
2023-04-20T02:23:25.758Z,101210.53
2023-04-20T02:23:48.356Z,101212.34
2023-04-20T02:24:10.049Z,101193.75
2023-04-20T02:24:31.671Z,101201.81
2023-04-20T02:24:53.327Z,101202.47
2023-04-20T02:25:16.288Z,101202.47
2023-04-20T02:25:38.370Z,101194.44
2023-04-20T02:26:00.026Z,101196.28
2023-04-20T02:26:21.687Z,101193.59
2023-04-20T02:26:43.472Z,101198.13
2023-04-20T02:27:06.285Z,101194.56
2023-04-20T02:27:28.152Z,101194.63
2023-04-20T02:27:49.900Z,101192.84
2023-04-20T02:28:11.526Z,101197.31
2023-04-20T02:28:34.587Z,101193.84
2023-04-20T02:28:59.434Z,101200.03
2023-04-20T02:29:21.365Z,101192.84
2023-04-20T02:29:43.006Z,101180.72
2023-04-20T02:30:11.105Z,101196.56
2023-04-20T02:30:32.818Z,101182.69
2023-04-20T02:30:54.438Z,101185.28
2023-04-20T02:31:16.272Z,101198.47
2023-04-20T02:31:40.806Z,101201.16
2023-04-20T02:32:02.576Z,101202.06
2023-04-20T02:32:24.287Z,101197.66
2023-04-20T02:32:45.992Z,101199.56
2023-04-20T02:33:11.842Z,101200.44
2023-04-20T02:33:33.866Z,101203.06
2023-04-20T02:33:55.527Z,101197.72
2023-04-20T02:34:17.114Z,101195.97
2023-04-20T02:34:39.649Z,101201.31
2023-04-20T02:35:01.616Z,101195.06
2023-04-20T02:35:23.402Z,101182.66
2023-04-20T02:35:45.105Z,101192.44
2023-04-20T02:36:08.383Z,101195.09
2023-04-20T02:36:29.963Z,101193.19
2023-04-20T02:36:51.616Z,101192.28
2023-04-20T02:37:13.370Z,101194.16
2023-04-20T02:37:37.300Z,101192.41
2023-04-20T02:37:59.350Z,101185.31
2023-04-20T02:38:22.544Z,101191.53
2023-04-20T02:38:44.165Z,101192.31
2023-04-20T02:39:06.813Z,101181.59
2023-04-20T02:39:29.004Z,101188.69
2023-04-20T02:39:50.631Z,101189.63
2023-04-20T02:40:13.838Z,101180.75
2023-04-20T02:40:35.551Z,101179.16
2023-04-20T02:40:58.773Z,101199.56
2023-04-20T02:41:20.533Z,101185.34
2023-04-20T02:41:42.403Z,101192.44
2023-04-20T02:42:06.129Z,101186.16
2023-04-20T02:42:28.296Z,101200.31
2023-04-20T02:42:53.002Z,101191.47
2023-04-20T02:43:14.793Z,101191.47
2023-04-20T02:43:36.624Z,101191.53
2023-04-20T02:43:59.450Z,101185.28
2023-04-20T02:44:21.283Z,101193.28
2023-04-20T02:44:44.717Z,101187.81
2023-04-20T02:45:07.624Z,101187.81
2023-04-20T02:45:30.817Z,101179.78
2023-04-20T02:45:52.494Z,101184.22
2023-04-20T02:46:19.014Z,101186.00
2023-04-20T02:46:40.926Z,101181.59
2023-04-20T02:47:03.084Z,101165.63
2023-04-20T02:47:24.987Z,101177.94
2023-04-20T02:47:49.530Z,101176.09
2023-04-20T02:48:12.063Z,101170.81
2023-04-20T02:48:34.520Z,101168.09
2023-04-20T02:48:56.533Z,101169.84
2023-04-20T02:49:19.283Z,101174.47
2023-04-20T02:49:42.935Z,101169.94
2023-04-20T02:50:05.355Z,101169.06
2023-04-20T02:50:44.145Z,101157.56
2023-04-20T02:51:15.393Z,101166.22
2023-04-20T02:51:39.505Z,101165.41
2023-04-20T02:52:01.249Z,101160.00
2023-04-20T02:52:22.876Z,101164.44
2023-04-20T02:52:45.478Z,101161.84
2023-04-20T02:53:07.120Z,101160.00
2023-04-20T02:53:32.930Z,101159.91
2023-04-20T02:54:06.844Z,101165.31
2023-04-20T02:54:28.467Z,101160.09
2023-04-20T02:54:51.439Z,101167.19
2023-04-20T02:55:13.196Z,101162.78
2023-04-20T02:55:36.446Z,101168.13
2023-04-20T02:56:06.428Z,101167.25
2023-04-20T02:56:38.775Z,101161.94
2023-04-20T02:57:04.150Z,101167.25
2023-04-20T02:57:25.782Z,101167.19
2023-04-20T02:57:48.259Z,101164.56
2023-04-20T02:58:10.497Z,101166.31
2023-04-20T02:58:53.099Z,101162.72
2023-04-20T02:59:30.694Z,101154.81
2023-04-20T02:59:57.063Z,101161.03
2023-04-20T03:00:24.143Z,101166.16
2023-04-20T03:00:59.616Z,101169.78
2023-04-20T03:01:21.739Z,101165.44
2023-04-20T03:01:47.064Z,101163.56
2023-04-20T03:02:11.467Z,101167.19
2023-04-20T03:02:34.391Z,101161.91
2023-04-20T03:02:58.158Z,101164.53
2023-04-20T03:03:21.261Z,101155.66
2023-04-20T03:03:43.239Z,101160.09
2023-04-20T03:04:07.187Z,101163.66
2023-04-20T03:04:34.217Z,101160.09
2023-04-20T03:05:09.618Z,101154.75
2023-04-20T03:05:37.463Z,101142.53
2023-04-20T03:06:00.478Z,101157.28
2023-04-20T03:06:22.275Z,101160.78
2023-04-20T03:06:50.419Z,101160.72
2023-04-20T03:07:18.410Z,101150.97
2023-04-20T03:07:41.462Z,101150.91
2023-04-20T03:08:06.965Z,101157.25
2023-04-20T03:08:28.584Z,101160.81
2023-04-20T03:08:55.349Z,101128.66
2023-04-20T03:09:36.089Z,101159.13
2023-04-20T03:10:17.414Z,101156.53
2023-04-20T03:10:53.546Z,101134.88
2023-04-20T03:11:15.887Z,101130.44
2023-04-20T03:11:37.530Z,101159.34
2023-04-20T03:12:02.238Z,101155.72
2023-04-20T03:12:41.447Z,101153.03
2023-04-20T03:13:20.903Z,101159.28
2023-04-20T03:13:49.997Z,101160.31
2023-04-20T03:14:11.885Z,101162.88
2023-04-20T03:14:33.553Z,101157.75
2023-04-20T03:14:56.255Z,101152.50
2023-04-20T03:15:40.920Z,101148.94
2023-04-20T03:16:21.802Z,101160.22
2023-04-20T03:16:48.797Z,101154.91
2023-04-20T03:17:11.239Z,101160.22
2023-04-20T03:17:32.954Z,101151.44
2023-04-20T03:17:55.728Z,101157.59
2023-04-20T03:18:17.610Z,101156.84
2023-04-20T03:18:40.098Z,101151.50
2023-04-20T03:19:01.880Z,101145.38
2023-04-20T03:19:23.955Z,101158.56
2023-04-20T03:19:46.760Z,101155.88
2023-04-20T03:20:09.152Z,101151.63
2023-04-20T03:20:31.049Z,101150.56
2023-04-20T03:20:53.251Z,101155.88
2023-04-20T03:21:16.381Z,101158.63
2023-04-20T03:21:38.540Z,101162.25
2023-04-20T03:22:00.179Z,101156.84
2023-04-20T03:22:21.856Z,101162.09
2023-04-20T03:22:48.751Z,101154.97
2023-04-20T03:23:11.111Z,101152.28
2023-04-20T03:23:32.736Z,101154.91
2023-04-20T03:23:57.300Z,101153.06
2023-04-20T03:24:20.408Z,101153.22
2023-04-20T03:24:42.040Z,101150.69
2023-04-20T03:25:14.503Z,101144.44
2023-04-20T03:25:57.165Z,101151.44
2023-04-20T03:26:36.907Z,101148.41
2023-04-20T03:27:22.081Z,101146.38
2023-04-20T03:27:57.722Z,101155.09
2023-04-20T03:28:20.175Z,101153.38
2023-04-20T03:28:42.148Z,101154.28
2023-04-20T03:29:06.622Z,101155.28
2023-04-20T03:29:29.193Z,101154.38
2023-04-20T03:29:52.597Z,101146.47
2023-04-20T03:30:14.942Z,101148.94
2023-04-20T03:30:37.906Z,101152.44
2023-04-20T03:31:06.611Z,101151.59
2023-04-20T03:31:29.576Z,101133.22
2023-04-20T03:31:52.539Z,101148.84
2023-04-20T03:32:14.554Z,101146.97
2023-04-20T03:32:36.450Z,101146.97
2023-04-20T03:32:59.233Z,101146.19
2023-04-20T03:33:21.083Z,101145.34
2023-04-20T03:33:42.789Z,101142.56
2023-04-20T03:34:04.461Z,101148.88
2023-04-20T03:34:27.184Z,101151.44
2023-04-20T03:34:49.119Z,101147.09
2023-04-20T03:35:11.176Z,101147.13
2023-04-20T03:35:34.629Z,101137.56
2023-04-20T03:35:56.321Z,101146.25
2023-04-20T03:36:18.850Z,101137.41
2023-04-20T03:36:40.405Z,101149.81
2023-04-20T03:37:02.168Z,101148.88
2023-04-20T03:37:23.807Z,101153.22
2023-04-20T03:37:47.939Z,101146.19
2023-04-20T03:38:09.602Z,101142.81
2023-04-20T03:38:31.730Z,101138.38
2023-04-20T03:38:53.307Z,101137.34
2023-04-20T03:39:17.705Z,101147.13
2023-04-20T03:39:39.536Z,101137.22
2023-04-20T03:40:01.122Z,101141.66
2023-04-20T03:40:22.908Z,101140.78
2023-04-20T03:40:44.539Z,101143.41
2023-04-20T03:41:08.125Z,101139.81
2023-04-20T03:41:30.730Z,101143.41
2023-04-20T03:41:52.333Z,101143.44
2023-04-20T03:42:13.917Z,101129.47
2023-04-20T03:42:38.146Z,101139.16
2023-04-20T03:43:00.392Z,101133.09
2023-04-20T03:43:23.141Z,101140.94
2023-04-20T03:43:44.806Z,101099.00
2023-04-20T03:44:07.605Z,101140.94
2023-04-20T03:44:29.302Z,101133.09
2023-04-20T03:44:51.328Z,101134.94
2023-04-20T03:45:13.508Z,101135.88
2023-04-20T03:45:36.092Z,101141.97
2023-04-20T03:45:57.852Z,101146.47
2023-04-20T03:46:20.913Z,101141.25
2023-04-20T03:46:43.640Z,101135.91
2023-04-20T03:47:06.255Z,101134.94
2023-04-20T03:47:28.260Z,101140.31
2023-04-20T03:47:50.119Z,101138.53
2023-04-20T03:48:11.864Z,101091.22
2023-04-20T03:48:34.771Z,101127.81
2023-04-20T03:48:56.429Z,101135.75
2023-04-20T03:49:23.299Z,101130.59
2023-04-20T03:49:45.884Z,101138.16
2023-04-20T03:50:08.192Z,101130.03
2023-04-20T03:50:29.782Z,101130.03
2023-04-20T03:50:51.554Z,101140.78
2023-04-20T03:51:14.191Z,101139.03
2023-04-20T03:51:35.910Z,101133.59
2023-04-20T03:51:58.926Z,101133.72
2023-04-20T03:52:20.735Z,101133.63
2023-04-20T03:52:43.333Z,101133.59
2023-04-20T03:53:05.650Z,101130.03
2023-04-20T03:53:28.994Z,101133.63
2023-04-20T03:53:51.535Z,101133.63
2023-04-20T03:54:13.163Z,101130.97
2023-04-20T03:54:37.166Z,101131.97
2023-04-20T03:54:58.875Z,101135.50
2023-04-20T03:55:20.588Z,101132.81
2023-04-20T03:55:47.904Z,101132.81
2023-04-20T03:56:15.206Z,101127.47
2023-04-20T03:56:37.803Z,101124.69
2023-04-20T03:56:59.723Z,101132.69
2023-04-20T03:57:22.546Z,101119.31
2023-04-20T03:57:45.247Z,101130.91
2023-04-20T03:58:06.982Z,101132.66
2023-04-20T03:58:39.539Z,101132.66
2023-04-20T03:59:08.229Z,101123.72
2023-04-20T03:59:29.898Z,101122.00
2023-04-20T03:59:51.615Z,101119.31
2023-04-20T04:00:17.013Z,101127.41
2023-04-20T04:00:41.365Z,101117.81
2023-04-20T04:01:09.329Z,101123.94
2023-04-20T04:01:33.707Z,101124.72
2023-04-20T04:01:55.461Z,101126.59
2023-04-20T04:02:17.292Z,101122.19
2023-04-20T04:02:42.417Z,101115.88
2023-04-20T04:03:05.036Z,101128.31
2023-04-20T04:03:27.818Z,101126.53
2023-04-20T04:03:49.719Z,101120.41
2023-04-20T04:04:13.432Z,101125.66
2023-04-20T04:04:35.587Z,101123.81
2023-04-20T04:04:57.388Z,101122.88
2023-04-20T04:05:19.344Z,101124.53
2023-04-20T04:05:43.852Z,101095.03
2023-04-20T04:06:07.022Z,101124.53
2023-04-20T04:06:28.800Z,101128.19
2023-04-20T04:06:50.463Z,101118.38
2023-04-20T04:07:12.466Z,101119.38
2023-04-20T04:07:36.937Z,101122.06
2023-04-20T04:07:58.765Z,101118.66
2023-04-20T04:08:20.586Z,101122.22
2023-04-20T04:08:43.520Z,101123.06
2023-04-20T04:09:05.306Z,101129.25
2023-04-20T04:09:27.025Z,101128.31
2023-04-20T04:09:50.014Z,101119.56
2023-04-20T04:10:11.862Z,101126.63
2023-04-20T04:10:34.708Z,101128.44
2023-04-20T04:10:56.381Z,101128.44
2023-04-20T04:11:17.977Z,101124.97
2023-04-20T04:11:39.865Z,101128.66
2023-04-20T04:12:01.921Z,101131.25
2023-04-20T04:12:25.564Z,101125.06
2023-04-20T04:12:47.389Z,101125.06
2023-04-20T04:13:09.589Z,101126.88
2023-04-20T04:13:33.882Z,101096.47
2023-04-20T04:13:59.034Z,101129.63
2023-04-20T04:14:20.937Z,101130.53
2023-04-20T04:14:42.729Z,101128.88
2023-04-20T04:15:07.734Z,101116.59
2023-04-20T04:15:35.573Z,101123.72
2023-04-20T04:16:02.416Z,101124.53
2023-04-20T04:16:24.197Z,101125.41
2023-04-20T04:16:46.339Z,101127.22
2023-04-20T04:17:09.226Z,101121.88
2023-04-20T04:17:34.917Z,101125.41
2023-04-20T04:17:56.634Z,101116.56
2023-04-20T04:18:18.301Z,101121.00
2023-04-20T04:18:45.750Z,101129.88
2023-04-20T04:19:07.503Z,101126.41
2023-04-20T04:19:29.537Z,101128.09
2023-04-20T04:19:51.194Z,101131.59
2023-04-20T04:20:13.564Z,101129.81
2023-04-20T04:20:36.440Z,101124.63
2023-04-20T04:20:58.189Z,101119.38
2023-04-20T04:21:19.837Z,101125.59
2023-04-20T04:21:47.590Z,101115.16
2023-04-20T04:22:11.011Z,101118.66
2023-04-20T04:22:43.242Z,101123.13
2023-04-20T04:23:26.310Z,101125.69
2023-04-20T04:24:00.841Z,101122.94
2023-04-20T04:24:43.930Z,101117.69
2023-04-20T04:25:08.000Z,101128.16
2023-04-20T04:25:30.704Z,101121.19